createdAt,value
2018-11-23T00:00:51.899Z,54.83
2018-11-23T00:03:20.723Z,52.87
2018-11-23T00:05:49.484Z,52.10
2018-11-23T00:08:18.837Z,51.43
2018-11-23T00:10:47.603Z,50.07
2018-11-23T00:13:16.383Z,51.90
2018-11-23T00:15:45.215Z,50.83
2018-11-23T00:18:14.325Z,46.60
2018-11-23T00:20:43.172Z,48.10
2018-11-23T00:23:12.010Z,48.73
2018-11-23T00:25:40.841Z,47.97
2018-11-23T00:28:09.703Z,50.33
2018-11-23T00:30:38.515Z,50.60
2018-11-23T00:33:07.319Z,51.37
2018-11-23T00:35:36.110Z,51.90
2018-11-23T00:38:05.266Z,51.67
2018-11-23T00:40:34.045Z,50.27
2018-11-23T00:43:03.169Z,50.73
2018-11-23T00:45:32.004Z,49.63
2018-11-23T00:48:01.659Z,49.93
2018-11-23T00:50:30.525Z,53.90
2018-11-23T00:53:00.333Z,50.87
2018-11-23T00:55:29.727Z,50.83
2018-11-23T00:57:58.549Z,49.97
2018-11-23T01:00:29.689Z,50.30
2018-11-23T01:02:59.309Z,48.57
2018-11-23T01:05:28.122Z,49.93
2018-11-23T01:07:56.952Z,49.67
2018-11-23T01:10:26.937Z,51.37
2018-11-23T01:12:56.838Z,48.73
2018-11-23T01:15:25.819Z,48.57
2018-11-23T01:17:54.652Z,48.03
2018-11-23T01:20:25.123Z,48.57
2018-11-23T01:22:54.654Z,48.43
2018-11-23T01:25:24.320Z,47.83
2018-11-23T01:27:54.130Z,49.50
2018-11-23T01:30:25.226Z,47.27
2018-11-23T01:32:54.371Z,47.77
2018-11-23T01:35:23.400Z,48.80
2018-11-23T01:37:52.427Z,46.97
2018-11-23T01:40:22.328Z,47.80
2018-11-23T01:42:51.489Z,46.23
2018-11-23T01:45:20.360Z,48.83
2018-11-23T01:47:49.210Z,49.93
2018-11-23T01:50:27.562Z,47.60
2018-11-23T01:52:56.685Z,47.77
2018-11-23T01:55:26.147Z,48.07
2018-11-23T01:57:54.979Z,47.10
2018-11-23T02:00:24.873Z,47.60
2018-11-23T02:02:54.547Z,49.63
2018-11-23T02:05:23.415Z,49.53
2018-11-23T02:07:52.239Z,48.37
2018-11-23T02:10:21.207Z,46.57
2018-11-23T02:12:50.091Z,47.53
2018-11-23T02:15:20.246Z,47.63
2018-11-23T02:17:49.837Z,47.40
2018-11-23T02:20:19.613Z,49.17
2018-11-23T02:22:48.416Z,46.10
2018-11-23T02:25:17.221Z,48.97
2018-11-23T02:27:46.238Z,48.17
2018-11-23T02:30:18.346Z,47.30
2018-11-23T02:32:47.154Z,47.37
2018-11-23T02:35:16.372Z,46.83
2018-11-23T02:37:45.208Z,47.07
2018-11-23T02:40:15.452Z,46.43
2018-11-23T02:42:44.545Z,48.53
2018-11-23T02:45:17.641Z,49.97
2018-11-23T02:47:47.242Z,48.77
2018-11-23T02:50:16.080Z,49.70
2018-11-23T02:52:45.955Z,50.60
2018-11-23T02:55:16.320Z,49.13
2018-11-23T02:57:45.244Z,48.37
2018-11-23T03:00:17.359Z,48.27
2018-11-23T03:02:46.426Z,50.27
2018-11-23T03:05:16.989Z,48.23
2018-11-23T03:07:45.858Z,48.43
2018-11-23T03:10:16.761Z,49.03
2018-11-23T03:12:46.526Z,48.87
2018-11-23T03:15:17.094Z,48.43
2018-11-23T03:17:46.533Z,48.47
2018-11-23T03:20:17.651Z,46.40
2018-11-23T03:22:46.431Z,46.97
2018-11-23T03:25:16.305Z,47.03
2018-11-23T03:27:45.157Z,49.20
2018-11-23T03:30:16.351Z,47.00
2018-11-23T03:32:46.385Z,47.17
2018-11-23T03:35:15.628Z,48.93
2018-11-23T03:37:44.985Z,47.83
2018-11-23T03:40:13.674Z,46.60
2018-11-23T03:42:42.661Z,50.40
2018-11-23T03:45:13.464Z,47.57
2018-11-23T03:47:42.799Z,48.80
2018-11-23T03:50:12.708Z,49.47
2018-11-23T03:52:42.099Z,47.13
2018-11-23T03:55:10.927Z,47.73
2018-11-23T03:57:40.197Z,49.27
2018-11-23T04:00:19.014Z,47.43
2018-11-23T04:02:48.446Z,46.90
2018-11-23T04:05:18.060Z,49.57
2018-11-23T04:07:47.358Z,46.53
2018-11-23T04:10:16.680Z,48.47
2018-11-23T04:12:46.047Z,55.10
2018-11-23T04:15:15.289Z,70.10
2018-11-23T04:17:44.237Z,63.70
2018-11-23T04:20:14.443Z,54.87
2018-11-23T04:22:43.993Z,52.53
2018-11-23T04:25:13.446Z,46.50
2018-11-23T04:27:42.907Z,50.50
2018-11-23T04:30:13.873Z,48.10
2018-11-23T04:32:43.282Z,54.93
2018-11-23T04:35:14.270Z,52.77
2018-11-23T04:37:43.899Z,52.13
2018-11-23T04:40:13.661Z,51.70
2018-11-23T04:42:42.962Z,52.60
2018-11-23T04:45:12.071Z,49.50
2018-11-23T04:47:41.191Z,50.23
2018-11-23T04:50:11.811Z,49.93
2018-11-23T04:52:40.854Z,49.13
2018-11-23T04:55:10.113Z,50.77
2018-11-23T04:57:39.017Z,49.97
2018-11-23T05:00:10.387Z,49.07
2018-11-23T05:02:39.502Z,51.43
2018-11-23T05:05:09.464Z,50.37
2018-11-23T05:07:38.521Z,49.83
2018-11-23T05:10:09.386Z,51.13
2018-11-23T05:12:38.609Z,50.20
2018-11-23T05:15:08.428Z,53.50
2018-11-23T05:17:37.783Z,51.73
2018-11-23T05:20:07.513Z,48.83
2018-11-23T05:22:36.716Z,52.37
2018-11-23T05:25:06.038Z,58.50
2018-11-23T05:27:34.942Z,58.33
2018-11-23T05:30:03.916Z,56.03
2018-11-23T05:32:32.843Z,55.30
2018-11-23T05:35:01.737Z,53.53
2018-11-23T05:37:30.630Z,56.27
2018-11-23T05:39:59.482Z,56.27
2018-11-23T05:42:28.399Z,52.90
2018-11-23T05:44:57.299Z,56.70
2018-11-23T05:47:26.463Z,53.97
2018-11-23T05:49:55.325Z,53.33
2018-11-23T05:52:24.154Z,52.27
2018-11-23T05:54:52.939Z,56.97
2018-11-23T05:57:21.864Z,54.90
2018-11-23T05:59:50.613Z,50.67
2018-11-23T06:02:19.661Z,53.30
2018-11-23T06:04:48.462Z,53.27
2018-11-23T06:07:17.296Z,49.80
2018-11-23T06:09:46.202Z,54.17
2018-11-23T06:29:03.072Z,52.17
2018-11-23T06:31:32.096Z,51.53
2018-11-23T06:34:00.949Z,51.43
2018-11-23T06:36:29.925Z,52.47
2018-11-23T06:38:58.889Z,52.97
2018-11-23T06:41:28.099Z,50.07
2018-11-23T06:43:57.084Z,48.80
2018-11-23T06:46:26.199Z,50.40
2018-11-23T06:48:55.254Z,51.87
2018-11-23T06:51:24.401Z,52.90
2018-11-23T06:53:53.342Z,53.97
2018-11-23T06:56:22.525Z,52.57
2018-11-23T06:58:51.365Z,53.00
2018-11-23T07:01:20.385Z,49.57
2018-11-23T07:03:49.231Z,50.80
2018-11-23T07:06:18.398Z,52.93
2018-11-23T07:08:52.318Z,53.50
2018-11-23T07:11:16.002Z,52.47
2018-11-23T07:13:44.936Z,47.63
2018-11-23T07:16:13.811Z,51.93
2018-11-23T07:18:42.661Z,50.53
2018-11-23T07:21:11.439Z,51.80
2018-11-23T07:23:40.389Z,53.33
2018-11-23T07:26:09.386Z,52.07
2018-11-23T10:48:17.180Z,61.00
2018-11-23T10:50:47.900Z,61.10
2018-11-23T10:53:17.027Z,60.33
2018-11-23T10:55:47.124Z,60.30
2018-11-23T10:58:17.971Z,60.83
2018-11-23T11:00:54.333Z,56.93
2018-11-23T11:03:33.679Z,56.77
2018-11-23T11:06:10.872Z,53.03
2018-11-23T11:08:40.150Z,53.10
2018-11-23T11:11:09.937Z,54.27
2018-11-23T11:13:39.807Z,55.73
2018-11-23T11:16:10.024Z,53.23
2018-11-23T11:18:39.277Z,54.97
2018-11-23T11:21:08.212Z,58.33
2018-11-23T11:23:38.574Z,68.90
2018-11-23T11:26:08.498Z,51.10
2018-11-23T11:28:38.438Z,51.87
2018-11-23T11:31:07.630Z,53.87
2018-11-23T11:33:37.092Z,52.17
2018-11-23T11:36:06.142Z,52.37
2018-11-23T11:38:35.206Z,54.43
2018-11-23T11:41:04.005Z,52.27
2018-11-23T11:43:33.007Z,51.37
2018-11-23T11:46:02.013Z,53.40
2018-11-23T11:48:31.111Z,52.77
2018-11-23T11:50:59.966Z,64.87
2018-11-23T11:53:28.788Z,53.27
2018-11-23T11:55:57.787Z,54.57
2018-11-23T11:58:26.693Z,55.93
2018-11-23T12:00:55.528Z,52.50
2018-11-23T12:03:24.543Z,52.87
2018-11-23T12:05:53.901Z,56.27
2018-11-23T12:08:23.077Z,50.93
2018-11-23T12:10:51.992Z,55.30
2018-11-23T12:13:21.039Z,53.10
2018-11-23T12:15:49.810Z,52.83
2018-11-23T12:18:18.603Z,54.87
2018-11-23T12:20:47.456Z,54.53
2018-11-23T12:23:16.563Z,54.40
2018-11-23T12:25:45.526Z,55.23
2018-11-23T12:28:14.820Z,56.13
2018-11-23T12:30:43.695Z,54.77
2018-11-23T12:33:12.685Z,54.73
2018-11-23T12:35:41.432Z,56.03
2018-11-23T12:38:10.369Z,55.27
2018-11-23T12:40:39.554Z,77.30
2018-11-23T12:43:08.789Z,84.33
2018-11-23T12:45:37.738Z,66.40
2018-11-23T12:48:06.673Z,59.20
2018-11-23T12:50:35.672Z,57.10
2018-11-23T12:53:06.442Z,55.17
2018-11-23T12:55:33.315Z,56.57
2018-11-23T12:58:02.087Z,57.30
2018-11-23T13:00:30.869Z,55.03
2018-11-23T13:03:02.189Z,51.97
2018-11-23T13:05:32.088Z,52.13
2018-11-23T13:08:02.625Z,54.20
2018-11-23T13:10:31.538Z,55.63
2018-11-23T13:13:01.033Z,54.97
2018-11-23T13:15:29.957Z,54.47
2018-11-23T13:17:59.635Z,57.93
2018-11-23T13:20:28.376Z,55.93
2018-11-23T13:22:57.423Z,55.10
2018-11-23T13:25:27.886Z,57.17
2018-11-23T13:27:56.730Z,57.97
2018-11-23T13:30:27.087Z,57.83
2018-11-23T13:32:55.873Z,61.43
2018-11-23T13:35:24.645Z,60.00
2018-11-23T13:37:53.677Z,59.37
2018-11-23T13:40:23.733Z,59.77
2018-11-23T13:42:53.392Z,67.07
2018-11-23T13:45:23.552Z,68.33
2018-11-23T13:47:52.331Z,66.83
2018-11-23T13:50:22.270Z,70.00
2018-11-23T13:52:52.227Z,67.73
2018-11-23T13:55:21.203Z,64.60
2018-11-23T13:57:50.140Z,64.67
2018-11-23T14:00:23.260Z,65.33
2018-11-23T14:02:52.328Z,66.43
2018-11-23T14:05:22.492Z,67.70
2018-11-23T14:07:53.089Z,66.60
2018-11-23T14:10:23.016Z,75.53
2018-11-23T14:12:51.818Z,74.23
2018-11-23T14:15:22.905Z,74.37
2018-11-23T14:17:52.775Z,70.70
2018-11-23T14:20:22.523Z,67.83
2018-11-23T14:22:51.574Z,67.77
2018-11-23T14:25:24.840Z,64.23
2018-11-23T14:27:54.416Z,64.00
2018-11-23T14:30:26.665Z,63.27
2018-11-23T14:32:55.800Z,69.33
2018-11-23T14:35:26.146Z,68.57
2018-11-23T14:37:55.883Z,71.73
2018-11-23T14:40:24.979Z,84.70
2018-11-23T14:42:54.188Z,77.63
2018-11-23T14:45:25.475Z,73.63
2018-11-23T14:47:55.556Z,72.10
2018-11-23T14:50:26.752Z,71.17
2018-11-23T14:52:56.455Z,73.57
2018-11-23T14:55:25.597Z,74.60
2018-11-23T14:57:54.734Z,73.87
2018-11-23T15:00:27.318Z,79.47
2018-11-23T15:02:57.588Z,77.23
2018-11-23T15:05:26.372Z,73.23
2018-11-23T15:07:55.401Z,73.13
2018-11-23T15:10:25.556Z,71.63
2018-11-23T15:12:55.765Z,71.07
2018-11-23T15:15:28.113Z,71.40
2018-11-23T15:17:57.921Z,70.70
2018-11-23T15:20:29.345Z,70.90
2018-11-23T15:23:04.830Z,71.57
2018-11-23T15:25:33.730Z,69.40
2018-11-23T15:28:02.569Z,66.43
2018-11-23T15:30:33.661Z,69.03
2018-11-23T15:33:02.968Z,67.47
2018-11-23T15:35:33.124Z,68.30
2018-11-23T15:38:02.009Z,70.77
2018-11-23T15:40:31.701Z,68.07
2018-11-23T15:43:02.401Z,68.23
2018-11-23T15:45:32.167Z,64.87
2018-11-23T15:48:01.638Z,67.17
2018-11-23T15:50:38.452Z,67.07
2018-11-23T15:53:09.127Z,70.60
2018-11-23T15:55:38.906Z,63.13
2018-11-23T15:58:10.348Z,65.90
2018-11-23T16:00:40.454Z,66.00
2018-11-23T16:03:10.614Z,65.73
2018-11-23T16:05:39.823Z,69.63
2018-11-23T16:08:12.524Z,65.13
2018-11-23T16:10:41.406Z,63.47
2018-11-23T16:13:11.813Z,64.40
2018-11-23T16:15:40.951Z,68.10
2018-11-23T16:18:10.231Z,68.60
2018-11-23T16:20:40.925Z,66.67
2018-11-23T16:23:11.227Z,66.97
2018-11-23T16:25:40.268Z,66.37
2018-11-23T16:28:10.631Z,69.17
2018-11-23T16:30:40.902Z,76.10
2018-11-23T16:33:11.493Z,73.30
2018-11-23T16:35:41.097Z,77.50
2018-11-23T16:38:11.661Z,73.50
2018-11-23T16:40:42.863Z,65.00
2018-11-23T16:43:12.779Z,65.33
2018-11-23T16:45:42.265Z,67.13
2018-11-23T16:48:12.376Z,69.13
2018-11-23T16:50:41.137Z,66.03
2018-11-23T16:53:10.420Z,66.53
2018-11-23T16:55:39.324Z,68.40
2018-11-23T16:58:10.692Z,67.80
2018-11-23T17:00:40.049Z,66.87
2018-11-23T17:03:11.937Z,63.17
2018-11-23T17:05:44.452Z,64.33
2018-11-23T17:08:13.624Z,64.43
2018-11-23T17:10:42.678Z,65.57
2018-11-23T17:13:11.751Z,67.57
2018-11-23T17:15:40.573Z,65.07
2018-11-23T17:18:10.110Z,66.27
2018-11-23T17:20:39.593Z,62.93
2018-11-23T17:23:09.400Z,60.73
2018-11-23T17:25:38.494Z,58.37
2018-11-23T17:28:08.602Z,58.93
2018-11-23T17:30:37.849Z,57.50
2018-11-23T17:33:07.209Z,61.63
2018-11-23T17:35:36.346Z,60.30
2018-11-23T17:38:05.579Z,59.47
2018-11-23T17:40:36.314Z,58.90
2018-11-23T17:43:05.672Z,57.00
2018-11-23T17:45:35.336Z,57.90
2018-11-23T17:48:04.210Z,56.17
2018-11-23T17:50:34.462Z,56.70
2018-11-23T17:53:03.733Z,55.63
2018-11-23T17:55:32.719Z,58.07
2018-11-23T17:58:01.812Z,59.60
2018-11-23T18:00:38.989Z,57.73
2018-11-23T18:03:02.058Z,57.83
2018-11-23T18:05:31.704Z,57.97
2018-11-23T18:08:01.196Z,57.20
2018-11-23T18:10:31.232Z,61.73
2018-11-23T18:13:00.887Z,60.07
2018-11-23T18:15:31.075Z,56.63
2018-11-23T18:18:00.918Z,58.40
2018-11-23T18:20:30.350Z,59.47
2018-11-23T18:23:00.053Z,58.17
2018-11-23T18:25:31.353Z,58.23
2018-11-23T18:28:00.309Z,57.83
2018-11-23T18:30:34.681Z,60.93
2018-11-23T18:33:07.109Z,60.90
2018-11-23T18:35:35.950Z,60.83
2018-11-23T18:38:05.110Z,59.53
2018-11-23T18:40:37.330Z,58.93
2018-11-23T18:43:03.092Z,63.97
2018-11-23T18:45:31.963Z,60.23
2018-11-23T18:48:01.215Z,59.30
2018-11-23T18:50:30.043Z,60.50
2018-11-23T18:52:59.052Z,62.90
2018-11-23T18:55:28.208Z,64.93
2018-11-23T18:57:57.292Z,65.10
2018-11-23T19:00:29.156Z,65.57
2018-11-23T19:02:58.262Z,61.80
2018-11-23T19:05:28.123Z,63.10
2018-11-23T19:07:57.154Z,63.20
2018-11-23T19:10:26.033Z,64.23
2018-11-23T19:12:54.891Z,67.17
2018-11-23T19:15:25.565Z,67.93
2018-11-23T19:17:53.066Z,65.97
2018-11-23T19:20:23.116Z,70.27
2018-11-23T19:22:53.456Z,73.07
2018-11-23T19:25:22.337Z,71.23
2018-11-23T19:27:51.758Z,72.00
2018-11-23T19:30:28.152Z,72.53
2018-11-23T19:32:51.275Z,70.17
2018-11-23T19:35:20.515Z,73.77
2018-11-23T19:37:50.178Z,72.93
2018-11-23T19:40:19.195Z,74.00
2018-11-23T19:42:47.986Z,72.27
2018-11-23T19:45:17.344Z,74.50
2018-11-23T19:47:46.535Z,75.40
2018-11-23T19:50:17.053Z,73.57
2018-11-23T19:52:46.024Z,77.60
2018-11-23T19:55:15.844Z,78.33
2018-11-23T19:57:44.680Z,74.93
2018-11-23T20:00:28.438Z,74.33
2018-11-23T20:02:57.636Z,77.17
2018-11-23T20:05:26.651Z,74.00
2018-11-23T20:07:56.982Z,81.23
2018-11-23T20:10:26.355Z,74.30
2018-11-23T20:12:56.634Z,71.77
2018-11-23T20:15:25.694Z,74.17
2018-11-23T20:17:54.975Z,72.73
2018-11-23T20:20:23.893Z,78.50
2018-11-23T20:22:53.333Z,78.17
2018-11-23T20:25:22.231Z,85.80
2018-11-23T20:27:52.241Z,83.50
2018-11-23T20:30:21.141Z,80.47
2018-11-23T20:32:50.242Z,79.20
2018-11-23T20:35:20.362Z,73.93
2018-11-23T20:37:49.321Z,69.33
2018-11-23T20:40:19.462Z,73.77
2018-11-23T20:42:48.312Z,71.90
2018-11-23T20:45:17.231Z,68.50
2018-11-23T20:47:46.577Z,69.93
2018-11-23T20:50:17.192Z,70.27
2018-11-23T20:52:46.309Z,89.80
2018-11-23T20:55:20.362Z,88.33
2018-11-23T20:57:49.268Z,84.00
2018-11-23T21:00:19.199Z,76.43
2018-11-23T21:02:50.350Z,79.00
2018-11-23T21:05:20.080Z,70.37
2018-11-23T21:07:49.732Z,74.27
2018-11-23T21:10:22.934Z,66.10
2018-11-23T21:12:53.991Z,67.87
2018-11-23T21:15:26.232Z,69.60
2018-11-23T21:17:55.540Z,67.53
2018-11-23T21:20:24.393Z,67.93
2018-11-23T21:22:53.389Z,68.03
2018-11-23T21:25:22.404Z,68.63
2018-11-23T21:27:51.307Z,69.37
2018-11-23T21:30:22.412Z,68.53
2018-11-23T21:32:51.900Z,67.40
2018-11-23T21:35:20.838Z,67.77
2018-11-23T21:37:50.364Z,65.90
2018-11-23T21:40:19.533Z,69.87
2018-11-23T21:42:49.240Z,67.43
2018-11-23T21:45:19.327Z,66.40
2018-11-23T21:47:48.716Z,67.40
2018-11-23T21:50:24.996Z,62.83
2018-11-23T21:52:49.158Z,61.67
2018-11-23T21:55:23.085Z,66.70
2018-11-23T21:57:52.952Z,62.30
2018-11-23T22:00:22.135Z,61.30
2018-11-23T22:02:50.978Z,61.57
2018-11-23T22:05:19.903Z,70.13
2018-11-23T22:07:48.683Z,62.93
2018-11-23T22:10:19.399Z,72.40
2018-11-23T22:12:48.590Z,61.07
2018-11-23T22:15:21.430Z,69.00
2018-11-23T22:17:51.508Z,60.30
2018-11-23T22:20:21.380Z,63.77
2018-11-23T22:22:50.778Z,74.17
2018-11-23T22:25:20.942Z,66.27
2018-11-23T22:27:49.791Z,60.80
2018-11-23T22:30:25.739Z,63.13
2018-11-23T22:32:54.785Z,60.23
2018-11-23T22:35:23.870Z,68.53
2018-11-23T22:37:52.783Z,66.03
2018-11-23T22:40:22.143Z,64.83
2018-11-23T22:42:52.367Z,57.40
2018-11-23T22:45:21.483Z,66.53
2018-11-23T22:47:50.648Z,68.60
2018-11-23T22:50:21.676Z,74.13
2018-11-23T22:52:50.719Z,83.67
2018-11-23T22:55:20.131Z,65.10
2018-11-23T22:57:49.159Z,71.60
2018-11-23T23:00:26.380Z,65.30
2018-11-23T23:02:55.242Z,74.03
2018-11-23T23:05:24.627Z,73.17
2018-11-23T23:07:53.454Z,74.73
2018-11-23T23:10:22.265Z,64.40
2018-11-23T23:12:51.103Z,61.30
2018-11-23T23:15:19.950Z,59.23
2018-11-23T23:17:48.776Z,62.77
2018-11-23T23:20:18.634Z,63.03
2018-11-23T23:22:47.828Z,67.83
2018-11-23T23:25:23.075Z,68.77
2018-11-23T23:27:52.553Z,61.27
2018-11-23T23:33:21.313Z,60.10
2018-11-23T23:36:01.718Z,54.17
2018-11-23T23:38:30.572Z,54.53
2018-11-23T23:40:59.368Z,50.73
2018-11-23T23:43:28.199Z,51.53
2018-11-23T23:45:56.991Z,54.93
2018-11-23T23:48:26.075Z,55.07
2018-11-23T23:50:54.907Z,46.13
2018-11-23T23:53:23.841Z,48.33
2018-11-23T23:55:52.592Z,53.20
2018-11-23T23:58:21.720Z,46.70
